sensor_id;sensor_type;location;lat;lon;timestamp;pressure;altitude;pressure_sealevel;temperature;humidity
39491;BME280;25175;50.140;18.990;2023-03-01T00:01:12;99730.78;;;-2.53;56.43
39491;BME280;25175;50.140;18.990;2023-03-01T00:04:20;99776.44;;;-2.30;56.84
39491;BME280;25175;50.140;18.990;2023-03-01T00:07:24;99745.19;;;-2.36;56.69
39491;BME280;25175;50.140;18.990;2023-03-01T00:10:29;99767.16;;;-2.18;56.65
39491;BME280;25175;50.140;18.990;2023-03-01T00:13:34;99757.72;;;-2.05;55.86
39491;BME280;25175;50.140;18.990;2023-03-01T00:16:44;99649.97;;;-2.61;55.52
39491;BME280;25175;50.140;18.990;2023-03-01T00:19:49;99757.47;;;-1.88;55.43
39491;BME280;25175;50.140;18.990;2023-03-01T00:22:54;99758.75;;;-1.81;55.25
39491;BME280;25175;50.140;18.990;2023-03-01T00:25:59;99743.78;;;-1.89;55.15
39491;BME280;25175;50.140;18.990;2023-03-01T00:29:04;99758.75;;;-1.81;55.22
39491;BME280;25175;50.140;18.990;2023-03-01T00:32:11;99753.38;;;-1.78;55.00
39491;BME280;25175;50.140;18.990;2023-03-01T00:35:17;99752.84;;;-1.83;55.02
39491;BME280;25175;50.140;18.990;2023-03-01T00:38:21;99752.31;;;-1.88;55.27
39491;BME280;25175;50.140;18.990;2023-03-01T00:41:26;99735.56;;;-1.94;55.23
39491;BME280;25175;50.140;18.990;2023-03-01T00:44:31;99740.78;;;-1.95;55.42
39491;BME280;25175;50.140;18.990;2023-03-01T00:47:39;99729.44;;;-2.05;55.28
39491;BME280;25175;50.140;18.990;2023-03-01T00:50:43;99737.63;;;-2.13;55.57
39491;BME280;25175;50.140;18.990;2023-03-01T00:53:52;99738.78;;;-2.04;55.58
39491;BME280;25175;50.140;18.990;2023-03-01T00:56:59;99733.25;;;-1.98;55.54
39491;BME280;25175;50.140;18.990;2023-03-01T01:00:09;99718.44;;;-2.07;55.33
39491;BME280;25175;50.140;18.990;2023-03-01T01:03:17;99715.44;;;-2.14;55.30
39491;BME280;25175;50.140;18.990;2023-03-01T01:06:25;99734.72;;;-1.94;55.22
39491;BME280;25175;50.140;18.990;2023-03-01T01:09:31;99745.00;;;-1.94;55.26
39491;BME280;25175;50.140;18.990;2023-03-01T01:12:36;99736.47;;;-1.95;55.12
39491;BME280;25175;50.140;18.990;2023-03-01T01:15:41;99725.34;;;-1.95;55.10
39491;BME280;25175;50.140;18.990;2023-03-01T01:18:49;99665.28;;;-2.33;55.43
39491;BME280;25175;50.140;18.990;2023-03-01T01:21:53;99727.75;;;-1.92;54.75
39491;BME280;25175;50.140;18.990;2023-03-01T01:24:59;99659.97;;;-2.30;54.71
39491;BME280;25175;50.140;18.990;2023-03-01T01:28:03;99716.53;;;-1.91;54.75
39491;BME280;25175;50.140;18.990;2023-03-01T01:31:08;99713.34;;;-1.95;54.53
39491;BME280;25175;50.140;18.990;2023-03-01T01:34:17;99580.34;;;-2.83;54.94
39491;BME280;25175;50.140;18.990;2023-03-01T01:37:24;99713.81;;;-2.02;55.10
39491;BME280;25175;50.140;18.990;2023-03-01T01:40:32;99707.22;;;-2.06;55.02
39491;BME280;25175;50.140;18.990;2023-03-01T01:43:38;99697.66;;;-2.04;55.15
39491;BME280;25175;50.140;18.990;2023-03-01T01:46:50;99695.22;;;-2.06;55.18
39491;BME280;25175;50.140;18.990;2023-03-01T01:50:02;99700.09;;;-2.15;55.20
39491;BME280;25175;50.140;18.990;2023-03-01T01:53:10;99692.63;;;-2.32;56.28
39491;BME280;25175;50.140;18.990;2023-03-01T01:56:23;99693.16;;;-2.27;56.05
39491;BME280;25175;50.140;18.990;2023-03-01T01:59:32;99694.81;;;-2.26;56.14
39491;BME280;25175;50.140;18.990;2023-03-01T02:02:40;99685.28;;;-2.24;55.86
39491;BME280;25175;50.140;18.990;2023-03-01T02:05:56;99684.97;;;-2.20;55.82
39491;BME280;25175;50.140;18.990;2023-03-01T02:09:13;99683.66;;;-2.13;55.37
39491;BME280;25175;50.140;18.990;2023-03-01T02:12:23;99680.19;;;-2.12;55.02
39491;BME280;25175;50.140;18.990;2023-03-01T02:15:33;99676.78;;;-2.12;54.91
39491;BME280;25175;50.140;18.990;2023-03-01T02:18:40;99664.31;;;-2.18;54.88
39491;BME280;25175;50.140;18.990;2023-03-01T02:22:00;99681.69;;;-2.09;54.87
39491;BME280;25175;50.140;18.990;2023-03-01T02:25:27;99691.56;;;-2.16;55.19
39491;BME280;25175;50.140;18.990;2023-03-01T02:28:44;99678.81;;;-2.17;55.38
39491;BME280;25175;50.140;18.990;2023-03-01T02:31:51;99679.31;;;-2.25;55.25
39491;BME280;25175;50.140;18.990;2023-03-01T02:35:02;99677.59;;;-2.38;55.65
39491;BME280;25175;50.140;18.990;2023-03-01T02:38:09;99670.34;;;-2.58;56.18
39491;BME280;25175;50.140;18.990;2023-03-01T02:41:17;99693.97;;;-2.53;56.52
39491;BME280;25175;50.140;18.990;2023-03-01T02:44:26;99681.19;;;-2.67;56.62
39491;BME280;25175;50.140;18.990;2023-03-01T02:47:31;99684.84;;;-2.57;56.27
39491;BME280;25175;50.140;18.990;2023-03-01T02:50:52;99688.84;;;-2.53;56.18
39491;BME280;25175;50.140;18.990;2023-03-01T02:54:15;99674.47;;;-2.56;55.66
39491;BME280;25175;50.140;18.990;2023-03-01T02:57:27;99664.72;;;-2.51;55.75
39491;BME280;25175;50.140;18.990;2023-03-01T03:00:40;99644.88;;;-2.75;55.71
39491;BME280;25175;50.140;18.990;2023-03-01T03:03:49;99689.22;;;-2.45;55.82
39491;BME280;25175;50.140;18.990;2023-03-01T03:06:55;99682.06;;;-2.54;55.83
39491;BME280;25175;50.140;18.990;2023-03-01T03:10:00;99688.28;;;-2.71;56.09
39491;BME280;25175;50.140;18.990;2023-03-01T03:13:10;99691.16;;;-2.89;56.63
39491;BME280;25175;50.140;18.990;2023-03-01T03:16:20;99696.41;;;-3.05;57.08
39491;BME280;25175;50.140;18.990;2023-03-01T03:19:27;99696.13;;;-3.14;57.50
39491;BME280;25175;50.140;18.990;2023-03-01T03:22:31;99691.34;;;-3.20;57.63
39491;BME280;25175;50.140;18.990;2023-03-01T03:25:37;99678.16;;;-3.28;58.01
39491;BME280;25175;50.140;18.990;2023-03-01T03:28:42;99689.88;;;-3.10;57.61
39491;BME280;25175;50.140;18.990;2023-03-01T03:31:51;99691.69;;;-2.98;56.91
39491;BME280;25175;50.140;18.990;2023-03-01T03:34:55;99680.03;;;-2.90;56.51
39491;BME280;25175;50.140;18.990;2023-03-01T03:38:03;99668.16;;;-3.05;56.53
39491;BME280;25175;50.140;18.990;2023-03-01T03:41:16;99686.34;;;-2.81;56.57
39491;BME280;25175;50.140;18.990;2023-03-01T03:44:22;99674.97;;;-2.77;56.30
39491;BME280;25175;50.140;18.990;2023-03-01T03:47:29;99667.09;;;-2.74;55.91
39491;BME280;25175;50.140;18.990;2023-03-01T03:50:35;99697.22;;;-2.90;55.69
39491;BME280;25175;50.140;18.990;2023-03-01T03:53:40;99655.59;;;-2.69;55.60
39491;BME280;25175;50.140;18.990;2023-03-01T03:56:46;99641.06;;;-2.82;55.57
39491;BME280;25175;50.140;18.990;2023-03-01T03:59:50;99666.34;;;-2.76;55.66
39491;BME280;25175;50.140;18.990;2023-03-01T04:02:58;99666.19;;;-2.87;56.07
39491;BME280;25175;50.140;18.990;2023-03-01T04:06:03;99667.88;;;-3.00;56.45
39491;BME280;25175;50.140;18.990;2023-03-01T04:09:09;99654.25;;;-3.15;56.96
39491;BME280;25175;50.140;18.990;2023-03-01T04:12:14;99667.63;;;-3.10;57.17
39491;BME280;25175;50.140;18.990;2023-03-01T04:15:26;99669.63;;;-3.15;57.45
39491;BME280;25175;50.140;18.990;2023-03-01T04:18:33;99664.41;;;-3.27;57.51
39491;BME280;25175;50.140;18.990;2023-03-01T04:21:38;99672.66;;;-3.22;57.60
39491;BME280;25175;50.140;18.990;2023-03-01T04:24:42;99679.53;;;-3.23;57.68
39491;BME280;25175;50.140;18.990;2023-03-01T04:27:48;99658.81;;;-3.34;57.99
39491;BME280;25175;50.140;18.990;2023-03-01T04:30:53;99682.38;;;-3.13;57.48
39491;BME280;25175;50.140;18.990;2023-03-01T04:34:02;99646.78;;;-3.19;57.11
39491;BME280;25175;50.140;18.990;2023-03-01T04:37:06;99666.63;;;-3.07;56.77
39491;BME280;25175;50.140;18.990;2023-03-01T04:40:12;99675.13;;;-2.93;56.31
39491;BME280;25175;50.140;18.990;2023-03-01T04:43:17;99658.31;;;-2.98;56.14
39491;BME280;25175;50.140;18.990;2023-03-01T04:46:22;99654.13;;;-2.99;55.99
39491;BME280;25175;50.140;18.990;2023-03-01T04:49:29;99665.47;;;-2.89;56.11
39491;BME280;25175;50.140;18.990;2023-03-01T04:52:35;99667.19;;;-2.90;56.29
39491;BME280;25175;50.140;18.990;2023-03-01T04:55:39;99654.13;;;-2.99;55.92
39491;BME280;25175;50.140;18.990;2023-03-01T04:58:45;99619.06;;;-3.41;56.23
39491;BME280;25175;50.140;18.990;2023-03-01T05:01:50;99563.75;;;-3.59;56.28
39491;BME280;25175;50.140;18.990;2023-03-01T05:04:59;99670.16;;;-2.96;56.21
39491;BME280;25175;50.140;18.990;2023-03-01T05:08:06;99582.59;;;-3.46;55.90
39491;BME280;25175;50.140;18.990;2023-03-01T05:11:19;99663.09;;;-2.92;55.33
39491;BME280;25175;50.140;18.990;2023-03-01T05:14:23;99651.25;;;-2.95;55.43
39491;BME280;25175;50.140;18.990;2023-03-01T05:17:28;99646.94;;;-2.94;55.37
39491;BME280;25175;50.140;18.990;2023-03-01T05:20:35;99642.91;;;-2.98;55.54
39491;BME280;25175;50.140;18.990;2023-03-01T05:23:41;99620.50;;;-3.23;55.83
39491;BME280;25175;50.140;18.990;2023-03-01T05:26:46;99652.84;;;-3.06;56.14
39491;BME280;25175;50.140;18.990;2023-03-01T05:29:53;99651.00;;;-3.04;56.01
39491;BME280;25175;50.140;18.990;2023-03-01T05:32:57;99641.19;;;-3.12;55.56
39491;BME280;25175;50.140;18.990;2023-03-01T05:36:07;99650.91;;;-3.03;55.99
39491;BME280;25175;50.140;18.990;2023-03-01T05:39:13;99652.66;;;-3.03;56.01
39491;BME280;25175;50.140;18.990;2023-03-01T05:42:18;99643.69;;;-3.10;56.38
39491;BME280;25175;50.140;18.990;2023-03-01T05:45:24;99633.97;;;-3.19;56.51
39491;BME280;25175;50.140;18.990;2023-03-01T05:48:31;99649.53;;;-3.08;56.75
39491;BME280;25175;50.140;18.990;2023-03-01T05:51:38;99651.94;;;-3.05;56.56
39491;BME280;25175;50.140;18.990;2023-03-01T05:54:43;99653.41;;;-3.01;56.64
39491;BME280;25175;50.140;18.990;2023-03-01T05:57:47;99647.03;;;-2.96;56.50
39491;BME280;25175;50.140;18.990;2023-03-01T06:00:53;99653.72;;;-2.93;56.43
39491;BME280;25175;50.140;18.990;2023-03-01T06:03:58;99665.75;;;-2.94;56.63
39491;BME280;25175;50.140;18.990;2023-03-01T06:07:06;99682.06;;;-2.95;57.19
39491;BME280;25175;50.140;18.990;2023-03-01T06:10:14;99680.97;;;-2.91;57.36
39491;BME280;25175;50.140;18.990;2023-03-01T06:13:19;99677.22;;;-2.85;57.46
39491;BME280;25175;50.140;18.990;2023-03-01T06:16:24;99672.72;;;-2.82;57.44
39491;BME280;25175;50.140;18.990;2023-03-01T06:19:29;99652.25;;;-2.97;57.31
39491;BME280;25175;50.140;18.990;2023-03-01T06:22:36;99677.25;;;-2.73;56.92
39491;BME280;25175;50.140;18.990;2023-03-01T06:25:42;99656.19;;;-2.78;56.95
39491;BME280;25175;50.140;18.990;2023-03-01T06:28:46;99670.00;;;-2.66;57.20
39491;BME280;25175;50.140;18.990;2023-03-01T06:31:51;99667.03;;;-2.60;57.22
39491;BME280;25175;50.140;18.990;2023-03-01T06:34:56;99677.22;;;-2.59;57.23
39491;BME280;25175;50.140;18.990;2023-03-01T06:38:04;99669.34;;;-2.56;57.59
39491;BME280;25175;50.140;18.990;2023-03-01T06:41:09;99681.69;;;-2.48;57.47
39491;BME280;25175;50.140;18.990;2023-03-01T06:44:14;99677.19;;;-2.45;57.48
39491;BME280;25175;50.140;18.990;2023-03-01T06:47:18;99669.19;;;-2.40;57.70
39491;BME280;25175;50.140;18.990;2023-03-01T06:50:24;99668.88;;;-2.36;57.84
39491;BME280;25175;50.140;18.990;2023-03-01T06:53:31;99667.78;;;-2.32;58.07
39491;BME280;25175;50.140;18.990;2023-03-01T06:56:36;99667.38;;;-2.26;57.91
39491;BME280;25175;50.140;18.990;2023-03-01T06:59:40;99679.13;;;-2.22;57.74
39491;BME280;25175;50.140;18.990;2023-03-01T07:02:45;99677.88;;;-2.16;57.89
39491;BME280;25175;50.140;18.990;2023-03-01T07:05:50;99667.94;;;-2.08;57.80
39491;BME280;25175;50.140;18.990;2023-03-01T07:08:58;99664.03;;;-2.01;57.64
39491;BME280;25175;50.140;18.990;2023-03-01T07:12:04;99641.09;;;-2.04;57.46
39491;BME280;25175;50.140;18.990;2023-03-01T07:15:10;99659.84;;;-1.90;57.36
39491;BME280;25175;50.140;18.990;2023-03-01T07:18:17;99650.59;;;-1.92;57.19
39491;BME280;25175;50.140;18.990;2023-03-01T07:21:22;99674.16;;;-1.73;57.26
39491;BME280;25175;50.140;18.990;2023-03-01T07:24:29;99671.78;;;-1.64;56.96
39491;BME280;25175;50.140;18.990;2023-03-01T07:27:34;99666.84;;;-1.54;57.15
39491;BME280;25175;50.140;18.990;2023-03-01T07:30:39;99662.03;;;-1.46;57.02
39491;BME280;25175;50.140;18.990;2023-03-01T07:33:44;99667.38;;;-1.37;56.98
39491;BME280;25175;50.140;18.990;2023-03-01T07:36:49;99652.00;;;-1.26;56.82
39491;BME280;25175;50.140;18.990;2023-03-01T07:39:56;99646.25;;;-1.17;56.85
39491;BME280;25175;50.140;18.990;2023-03-01T07:43:01;99649.41;;;-1.13;56.39
39491;BME280;25175;50.140;18.990;2023-03-01T07:46:07;99633.94;;;-1.01;56.44
39491;BME280;25175;50.140;18.990;2023-03-01T07:49:11;99624.50;;;-0.89;56.58
39491;BME280;25175;50.140;18.990;2023-03-01T07:52:16;99622.44;;;-0.84;56.46
39491;BME280;25175;50.140;18.990;2023-03-01T07:55:23;99620.84;;;-0.74;56.29
39491;BME280;25175;50.140;18.990;2023-03-01T07:58:29;99613.41;;;-0.66;56.15
39491;BME280;25175;50.140;18.990;2023-03-01T08:01:34;99628.31;;;-0.59;55.71
39491;BME280;25175;50.140;18.990;2023-03-01T08:04:40;99621.91;;;-0.53;55.47
39491;BME280;25175;50.140;18.990;2023-03-01T08:07:44;99617.94;;;-0.46;55.09
39491;BME280;25175;50.140;18.990;2023-03-01T08:10:52;99618.34;;;-0.40;55.18
39491;BME280;25175;50.140;18.990;2023-03-01T08:13:59;99626.47;;;-0.22;54.71
39491;BME280;25175;50.140;18.990;2023-03-01T08:17:05;99621.78;;;-0.17;54.72
39491;BME280;25175;50.140;18.990;2023-03-01T08:20:12;99619.72;;;-0.12;54.44
39491;BME280;25175;50.140;18.990;2023-03-01T08:23:18;99623.03;;;0.01;54.80
39491;BME280;25175;50.140;18.990;2023-03-01T08:26:25;99622.81;;;0.15;53.84
39491;BME280;25175;50.140;18.990;2023-03-01T08:29:31;99623.41;;;0.18;53.41
39491;BME280;25175;50.140;18.990;2023-03-01T08:32:38;99546.19;;;-0.18;53.68
39491;BME280;25175;50.140;18.990;2023-03-01T08:35:43;99620.28;;;0.48;54.19
39491;BME280;25175;50.140;18.990;2023-03-01T08:38:48;99611.84;;;0.57;53.73
39491;BME280;25175;50.140;18.990;2023-03-01T08:41:57;99596.66;;;0.74;53.51
39491;BME280;25175;50.140;18.990;2023-03-01T08:45:02;99615.19;;;1.01;53.12
39491;BME280;25175;50.140;18.990;2023-03-01T08:48:07;99598.03;;;1.11;52.59
39491;BME280;25175;50.140;18.990;2023-03-01T08:51:13;99599.03;;;1.31;52.70
39491;BME280;25175;50.140;18.990;2023-03-01T08:54:21;99598.41;;;1.49;52.33
39491;BME280;25175;50.140;18.990;2023-03-01T08:57:28;99598.72;;;1.67;51.62
39491;BME280;25175;50.140;18.990;2023-03-01T09:00:34;99573.13;;;1.73;51.70
39491;BME280;25175;50.140;18.990;2023-03-01T09:03:38;99591.13;;;1.95;50.78
39491;BME280;25175;50.140;18.990;2023-03-01T09:06:44;99596.94;;;2.08;50.04
39491;BME280;25175;50.140;18.990;2023-03-01T09:09:49;99584.50;;;2.23;49.82
39491;BME280;25175;50.140;18.990;2023-03-01T09:12:58;99571.59;;;2.32;49.94
39491;BME280;25175;50.140;18.990;2023-03-01T09:16:05;99580.25;;;2.52;49.04
39491;BME280;25175;50.140;18.990;2023-03-01T09:19:13;99579.19;;;2.54;47.51
39491;BME280;25175;50.140;18.990;2023-03-01T09:22:17;99588.25;;;2.69;47.71
39491;BME280;25175;50.140;18.990;2023-03-01T09:25:23;99585.28;;;2.83;46.21
39491;BME280;25175;50.140;18.990;2023-03-01T09:28:30;99587.91;;;2.93;45.41
39491;BME280;25175;50.140;18.990;2023-03-01T09:31:35;99499.81;;;2.44;45.33
39491;BME280;25175;50.140;18.990;2023-03-01T09:34:39;99580.38;;;2.90;44.75
39491;BME280;25175;50.140;18.990;2023-03-01T09:37:57;99585.88;;;2.96;46.23
39491;BME280;25175;50.140;18.990;2023-03-01T09:41:01;99575.19;;;2.90;44.32
39491;BME280;25175;50.140;18.990;2023-03-01T09:44:22;99583.44;;;3.14;46.32
39491;BME280;25175;50.140;18.990;2023-03-01T09:47:36;99579.91;;;3.34;46.55
39491;BME280;25175;50.140;18.990;2023-03-01T09:50:44;99577.47;;;3.51;46.43
39491;BME280;25175;50.140;18.990;2023-03-01T09:53:50;99295.69;;;1.90;45.85
39491;BME280;25175;50.140;18.990;2023-03-01T09:57:11;99597.97;;;3.92;45.23
39491;BME280;25175;50.140;18.990;2023-03-01T10:00:33;99590.41;;;4.08;44.47
39491;BME280;25175;50.140;18.990;2023-03-01T10:03:58;99580.34;;;4.05;43.37
39491;BME280;25175;50.140;18.990;2023-03-01T10:07:38;99556.13;;;4.05;41.96
39491;BME280;25175;50.140;18.990;2023-03-01T10:10:52;99574.19;;;4.06;41.56
39491;BME280;25175;50.140;18.990;2023-03-01T10:14:03;99570.06;;;4.04;41.55
39491;BME280;25175;50.140;18.990;2023-03-01T10:17:30;99560.88;;;4.09;41.50
39491;BME280;25175;50.140;18.990;2023-03-01T10:20:45;99560.06;;;4.18;41.40
39491;BME280;25175;50.140;18.990;2023-03-01T10:24:08;99555.66;;;4.28;41.36
39491;BME280;25175;50.140;18.990;2023-03-01T10:27:22;99563.09;;;4.14;42.02
39491;BME280;25175;50.140;18.990;2023-03-01T10:30:35;99399.44;;;3.87;42.47
39491;BME280;25175;50.140;18.990;2023-03-01T10:33:47;99537.34;;;5.01;42.30
39491;BME280;25175;50.140;18.990;2023-03-01T10:37:00;99545.63;;;5.14;41.33
39491;BME280;25175;50.140;18.990;2023-03-01T10:40:12;99544.28;;;5.45;40.89
39491;BME280;25175;50.140;18.990;2023-03-01T10:43:21;99537.03;;;5.66;40.77
39491;BME280;25175;50.140;18.990;2023-03-01T10:46:29;99535.16;;;5.76;39.90
39491;BME280;25175;50.140;18.990;2023-03-01T10:49:39;99528.22;;;5.85;39.82
39491;BME280;25175;50.140;18.990;2023-03-01T10:52:57;99535.06;;;6.11;40.39
39491;BME280;25175;50.140;18.990;2023-03-01T10:56:08;99517.66;;;6.20;39.73
39491;BME280;25175;50.140;18.990;2023-03-01T10:59:27;99539.16;;;6.47;38.50
39491;BME280;25175;50.140;18.990;2023-03-01T11:02:33;99535.44;;;6.58;38.88
39491;BME280;25175;50.140;18.990;2023-03-01T11:05:54;99521.47;;;6.67;38.88
39491;BME280;25175;50.140;18.990;2023-03-01T11:09:14;99478.03;;;6.50;38.08
39491;BME280;25175;50.140;18.990;2023-03-01T11:12:20;99501.28;;;6.77;37.87
39491;BME280;25175;50.140;18.990;2023-03-01T11:15:27;99503.81;;;7.02;38.22
39491;BME280;25175;50.140;18.990;2023-03-01T11:18:33;99497.59;;;7.11;37.54
39491;BME280;25175;50.140;18.990;2023-03-01T11:21:46;99495.53;;;7.23;36.89
39491;BME280;25175;50.140;18.990;2023-03-01T11:25:01;99476.09;;;7.09;36.38
39491;BME280;25175;50.140;18.990;2023-03-01T11:28:14;99489.97;;;7.18;37.10
39491;BME280;25175;50.140;18.990;2023-03-01T11:31:24;99487.72;;;7.23;36.60
39491;BME280;25175;50.140;18.990;2023-03-01T11:34:40;99491.44;;;7.28;36.62
39491;BME280;25175;50.140;18.990;2023-03-01T11:38:02;99483.63;;;7.36;36.59
39491;BME280;25175;50.140;18.990;2023-03-01T11:41:20;99489.19;;;7.49;36.99
39491;BME280;25175;50.140;18.990;2023-03-01T11:44:33;99407.09;;;7.12;36.32
39491;BME280;25175;50.140;18.990;2023-03-01T11:48:05;99481.97;;;7.67;36.50
39491;BME280;25175;50.140;18.990;2023-03-01T11:51:41;99467.28;;;7.74;36.23
39491;BME280;25175;50.140;18.990;2023-03-01T11:55:19;99466.44;;;7.82;35.82
39491;BME280;25175;50.140;18.990;2023-03-01T11:59:03;99442.00;;;7.67;34.71
39491;BME280;25175;50.140;18.990;2023-03-01T12:02:53;99466.59;;;7.88;35.04
39491;BME280;25175;50.140;18.990;2023-03-01T12:06:33;99187.69;;;6.03;33.66
39491;BME280;25175;50.140;18.990;2023-03-01T12:10:20;99465.69;;;7.41;33.87
39491;BME280;25175;50.140;18.990;2023-03-01T12:13:49;99451.81;;;7.25;35.14
39491;BME280;25175;50.140;18.990;2023-03-01T12:17:44;99455.34;;;7.16;34.02
39491;BME280;25175;50.140;18.990;2023-03-01T12:21:13;99446.22;;;7.04;34.14
39491;BME280;25175;50.140;18.990;2023-03-01T12:24:46;99447.53;;;7.00;33.86
39491;BME280;25175;50.140;18.990;2023-03-01T12:32:16;99430.53;;;6.88;33.70
39491;BME280;25175;50.140;18.990;2023-03-01T12:35:48;99434.28;;;6.77;33.75
39491;BME280;25175;50.140;18.990;2023-03-01T12:39:25;99428.72;;;6.64;33.33
39491;BME280;25175;50.140;18.990;2023-03-01T12:42:51;99416.19;;;6.68;34.08
39491;BME280;25175;50.140;18.990;2023-03-01T12:46:29;99409.16;;;6.68;34.17
39491;BME280;25175;50.140;18.990;2023-03-01T12:49:51;99416.81;;;6.70;34.05
39491;BME280;25175;50.140;18.990;2023-03-01T12:53:00;99409.94;;;6.61;33.83
39491;BME280;25175;50.140;18.990;2023-03-01T12:56:07;99409.94;;;6.61;33.73
39491;BME280;25175;50.140;18.990;2023-03-01T12:59:24;99401.50;;;6.67;35.18
39491;BME280;25175;50.140;18.990;2023-03-01T13:02:45;99399.56;;;6.69;34.07
39491;BME280;25175;50.140;18.990;2023-03-01T13:06:07;99389.44;;;6.66;34.34
39491;BME280;25175;50.140;18.990;2023-03-01T13:09:26;99394.19;;;6.78;34.46
39491;BME280;25175;50.140;18.990;2023-03-01T13:12:50;99407.88;;;6.88;33.71
39491;BME280;25175;50.140;18.990;2023-03-01T13:16:20;99385.69;;;6.68;33.74
39491;BME280;25175;50.140;18.990;2023-03-01T13:19:56;99063.09;;;4.77;33.74
39491;BME280;25175;50.140;18.990;2023-03-01T13:23:07;99398.59;;;6.86;34.24
39491;BME280;25175;50.140;18.990;2023-03-01T13:26:17;99377.91;;;6.92;34.29
39491;BME280;25175;50.140;18.990;2023-03-01T13:29:26;99372.34;;;7.03;34.28
39491;BME280;25175;50.140;18.990;2023-03-01T13:32:35;99378.06;;;7.23;33.03
39491;BME280;25175;50.140;18.990;2023-03-01T13:35:44;99185.91;;;6.03;33.61
39491;BME280;25175;50.140;18.990;2023-03-01T13:38:56;99389.16;;;7.33;33.26
39491;BME280;25175;50.140;18.990;2023-03-01T13:42:01;99381.63;;;7.38;33.50
39491;BME280;25175;50.140;18.990;2023-03-01T13:45:20;99369.72;;;7.43;33.76
39491;BME280;25175;50.140;18.990;2023-03-01T13:48:33;99354.59;;;7.23;33.50
39491;BME280;25175;50.140;18.990;2023-03-01T13:51:39;99372.19;;;7.13;33.74
39491;BME280;25175;50.140;18.990;2023-03-01T13:54:43;99370.53;;;7.04;34.05
39491;BME280;25175;50.140;18.990;2023-03-01T13:57:51;99374.28;;;7.01;34.16
39491;BME280;25175;50.140;18.990;2023-03-01T14:01:04;99361.72;;;7.13;34.68
39491;BME280;25175;50.140;18.990;2023-03-01T14:04:25;99369.25;;;7.24;34.06
39491;BME280;25175;50.140;18.990;2023-03-01T14:07:32;99372.19;;;7.21;33.83
39491;BME280;25175;50.140;18.990;2023-03-01T14:14:40;99351.00;;;7.00;33.98
39491;BME280;25175;50.140;18.990;2023-03-01T14:17:58;99336.94;;;7.09;34.04
39491;BME280;25175;50.140;18.990;2023-03-01T14:21:14;99338.91;;;7.07;34.24
39491;BME280;25175;50.140;18.990;2023-03-01T14:24:22;99341.06;;;7.19;34.53
39491;BME280;25175;50.140;18.990;2023-03-01T14:27:33;99341.50;;;7.31;34.16
39491;BME280;25175;50.140;18.990;2023-03-01T14:30:45;99340.84;;;7.45;33.80
39491;BME280;25175;50.140;18.990;2023-03-01T14:33:54;99277.88;;;7.16;33.40
39491;BME280;25175;50.140;18.990;2023-03-01T14:37:19;99328.22;;;7.56;33.44
39491;BME280;25175;50.140;18.990;2023-03-01T14:40:28;99321.53;;;7.62;32.55
39491;BME280;25175;50.140;18.990;2023-03-01T14:43:37;99316.25;;;7.70;32.78
39491;BME280;25175;50.140;18.990;2023-03-01T14:46:53;99325.38;;;7.74;32.11
39491;BME280;25175;50.140;18.990;2023-03-01T14:50:02;99321.84;;;7.67;32.14
39491;BME280;25175;50.140;18.990;2023-03-01T14:53:19;99321.53;;;7.62;31.94
39491;BME280;25175;50.140;18.990;2023-03-01T14:56:44;99322.69;;;7.59;32.21
39491;BME280;25175;50.140;18.990;2023-03-01T14:59:52;99319.72;;;7.62;32.64
39491;BME280;25175;50.140;18.990;2023-03-01T15:03:06;99326.44;;;7.57;32.49
39491;BME280;25175;50.140;18.990;2023-03-01T15:06:18;99333.31;;;7.50;32.56
39491;BME280;25175;50.140;18.990;2023-03-01T15:09:28;99327.78;;;7.45;32.50
39491;BME280;25175;50.140;18.990;2023-03-01T15:12:41;99328.28;;;7.32;32.34
39491;BME280;25175;50.140;18.990;2023-03-01T15:15:48;99106.75;;;5.80;32.18
39491;BME280;25175;50.140;18.990;2023-03-01T15:18:57;99318.69;;;7.17;32.65
39491;BME280;25175;50.140;18.990;2023-03-01T15:22:15;99319.97;;;7.13;32.58
39491;BME280;25175;50.140;18.990;2023-03-01T15:25:25;99326.81;;;7.14;32.77
39491;BME280;25175;50.140;18.990;2023-03-01T15:28:36;99323.56;;;7.12;32.63
39491;BME280;25175;50.140;18.990;2023-03-01T15:31:56;99262.94;;;6.70;32.22
39491;BME280;25175;50.140;18.990;2023-03-01T15:35:33;99322.94;;;7.02;32.40
39491;BME280;25175;50.140;18.990;2023-03-01T15:38:53;99320.97;;;6.96;32.46
39491;BME280;25175;50.140;18.990;2023-03-01T15:42:04;99317.69;;;6.94;32.29
39491;BME280;25175;50.140;18.990;2023-03-01T15:45:21;99318.22;;;6.97;32.33
39491;BME280;25175;50.140;18.990;2023-03-01T15:48:29;99327.00;;;7.04;33.14
39491;BME280;25175;50.140;18.990;2023-03-01T15:51:36;99326.34;;;7.10;34.20
39491;BME280;25175;50.140;18.990;2023-03-01T15:54:41;99323.88;;;7.09;32.72
39491;BME280;25175;50.140;18.990;2023-03-01T15:57:58;99314.28;;;7.01;32.87
39491;BME280;25175;50.140;18.990;2023-03-01T16:01:11;99325.50;;;7.10;32.66
39491;BME280;25175;50.140;18.990;2023-03-01T16:04:18;99296.84;;;6.86;32.93
39491;BME280;25175;50.140;18.990;2023-03-01T16:07:27;99333.19;;;7.11;33.09
39491;BME280;25175;50.140;18.990;2023-03-01T16:10:33;99333.03;;;7.13;33.47
39491;BME280;25175;50.140;18.990;2023-03-01T16:13:42;99329.78;;;7.11;34.23
39491;BME280;25175;50.140;18.990;2023-03-01T16:16:47;99360.09;;;7.04;33.79
39491;BME280;25175;50.140;18.990;2023-03-01T16:19:53;99331.72;;;6.93;33.97
39491;BME280;25175;50.140;18.990;2023-03-01T16:22:58;99326.84;;;6.82;34.68
39491;BME280;25175;50.140;18.990;2023-03-01T16:26:04;99330.44;;;6.73;35.03
39491;BME280;25175;50.140;18.990;2023-03-01T16:29:11;99330.44;;;6.65;35.17
39491;BME280;25175;50.140;18.990;2023-03-01T16:32:17;99286.06;;;6.33;35.47
39491;BME280;25175;50.140;18.990;2023-03-01T16:35:22;99337.25;;;6.42;35.83
39491;BME280;25175;50.140;18.990;2023-03-01T16:38:29;99333.63;;;6.27;36.50
39491;BME280;25175;50.140;18.990;2023-03-01T16:41:35;99340.78;;;6.17;36.61
39491;BME280;25175;50.140;18.990;2023-03-01T16:44:43;99340.13;;;6.07;36.59
39491;BME280;25175;50.140;18.990;2023-03-01T16:47:47;99343.31;;;5.93;37.10
39491;BME280;25175;50.140;18.990;2023-03-01T16:50:59;99352.66;;;5.70;37.43